Dai2kousei — JD2542 — position and weather

sailwx.info

Track history (hours):
 
Tides and Currents Weather Stations Pressure Air Temp Water Temp Dewpoint Dewpoint Depression Visibility Wind Speed Wind Dir Waves Ship Positions

Dai2kousei

Last reported at 2016-Feb-08 17:23 UTC. Time now 2016-Feb-13 17:12 UTC.
Position N 34°06' E 134°46'.

Length 77 m; draft 4.7 m.

MMSI: 431000467.

Date/timePositionNaut miles runAvg speedWind from/ knotsBaromVisibWave heightAir tempDewpointWater temp
2016-Feb-08 17:23N 34°06' E 134°46'255 8.8
2016-Feb-07 12:33N 35°11' E 139°45'1111.1
2016-Feb-07 11:33N 35°22' E 139°42'7 7.3
2016-Feb-07 10:33N 35°29' E 139°46'0 0.1
2016-Feb-07 09:33N 35°29' E 139°46'0 0.0
2016-Feb-07 08:33N 35°29' E 139°46'0 0.0
2016-Feb-07 07:33N 35°29' E 139°46'0 0.0
2016-Feb-07 06:33N 35°29' E 139°46'1 1.4
2016-Feb-07 05:33N 35°29' E 139°44'0 0.0
2016-Feb-07 04:33N 35°29' E 139°44'0 0.0
2016-Feb-07 03:33N 35°29' E 139°44'0 0.0
2016-Feb-07 02:33N 35°29' E 139°44'0 0.0
2016-Feb-07 01:33N 35°29' E 139°44'0 0.0
2016-Feb-07 00:33N 35°29' E 139°44'0 0.0
2016-Feb-06 23:33N 35°29' E 139°44'0 0.0
2016-Feb-06 22:33N 35°29' E 139°44'0 0.0
2016-Feb-06 21:33N 35°29' E 139°44'2 1.5
2016-Feb-06 20:33N 35°28' E 139°46'0 0.0
2016-Feb-06 19:33N 35°28' E 139°46'0 0.0
2016-Feb-06 18:33N 35°28' E 139°46'0 0.0
2016-Feb-06 17:33N 35°28' E 139°46'0 0.0
2016-Feb-06 16:33N 35°28' E 139°46'0 0.0
2016-Feb-06 15:33N 35°28' E 139°46'0 0.0
2016-Feb-06 14:33N 35°28' E 139°46'0 0.0
2016-Feb-06 13:33N 35°28' E 139°46'0 0.1
2016-Feb-06 12:33N 35°28' E 139°46'0 0.0
2016-Feb-06 11:33N 35°28' E 139°46'0 0.1
2016-Feb-06 10:33N 35°28' E 139°46'0 0.1
2016-Feb-06 09:33N 35°28' E 139°46'0 0.0
2016-Feb-06 08:33N 35°28' E 139°46'0 0.0
2016-Feb-06 07:33N 35°28' E 139°46'0 0.0
2016-Feb-06 06:33N 35°28' E 139°46'0 0.0
2016-Feb-06 05:33N 35°28' E 139°46'0 0.0
2016-Feb-06 04:33N 35°28' E 139°46'0 0.0
2016-Feb-06 03:33N 35°28' E 139°46'0 0.0
2016-Feb-06 02:33N 35°28' E 139°46'0 0.0
2016-Feb-06 01:33N 35°28' E 139°46'0 0.0
2016-Feb-06 00:33N 35°28' E 139°46'0 0.0
2016-Feb-05 23:33N 35°28' E 139°46'0 0.0
2016-Feb-05 22:33N 35°28' E 139°46'0 0.0
2016-Feb-05 21:33N 35°28' E 139°46'0 0.0
2016-Feb-05 20:33N 35°28' E 139°46'0 0.0
2016-Feb-05 19:33N 35°28' E 139°46'0 0.0
2016-Feb-05 18:33N 35°28' E 139°46'0 0.0
2016-Feb-05 17:33N 35°28' E 139°46'0 0.0
2016-Feb-05 16:33N 35°28' E 139°46'0 0.0
2016-Feb-05 15:33N 35°28' E 139°46'0 0.0
2016-Feb-05 14:33N 35°28' E 139°46'1 1.5
2016-Feb-05 13:33N 35°29' E 139°44'0 0.0
2016-Feb-05 12:33N 35°29' E 139°44'0 0.0
2016-Feb-05 11:33N 35°29' E 139°44'0 0.0
2016-Feb-05 10:33N 35°29' E 139°44'0 0.0
2016-Feb-05 09:33N 35°29' E 139°44'0 0.0
2016-Feb-05 08:33N 35°29' E 139°44'1 1.2
2016-Feb-05 07:33N 35°29' E 139°46'0 0.1
2016-Feb-05 06:33N 35°29' E 139°45'0 0.0
2016-Feb-05 05:33N 35°29' E 139°45'0 0.0
2016-Feb-05 04:33N 35°29' E 139°45'0 0.0
2016-Feb-05 03:33N 35°29' E 139°45'0 0.0
2016-Feb-05 02:33N 35°29' E 139°46'0 0.0
2016-Feb-05 01:33N 35°29' E 139°46'0 0.0
2016-Feb-05 00:33N 35°29' E 139°46'0 0.0
2016-Feb-04 23:33N 35°29' E 139°46'0 0.0
2016-Feb-04 22:33N 35°29' E 139°46'0 0.0
2016-Feb-04 21:33N 35°29' E 139°45'0 0.0
2016-Feb-04 20:33N 35°29' E 139°45'0 0.0
2016-Feb-04 19:33N 35°29' E 139°45'0 0.1
2016-Feb-04 18:33N 35°29' E 139°46'0 0.0
2016-Feb-04 17:33N 35°29' E 139°46'0 0.0
2016-Feb-04 16:33N 35°29' E 139°46'0 0.0
2016-Feb-04 15:33N 35°29' E 139°46'0 0.0
2016-Feb-04 14:33N 35°29' E 139°46'0 0.1
2016-Feb-04 13:33N 35°29' E 139°45'0 0.0
2016-Feb-04 12:33N 35°29' E 139°45'0 0.0
2016-Feb-04 11:33N 35°29' E 139°45'0 0.1
2016-Feb-04 10:33N 35°29' E 139°46'0 0.0
2016-Feb-04 09:33N 35°29' E 139°46'0 0.0
2016-Feb-04 08:33N 35°29' E 139°46'0 0.1
2016-Feb-04 07:33N 35°29' E 139°45'0 0.0
2016-Feb-04 06:33N 35°29' E 139°45'0 0.0
2016-Feb-04 05:33N 35°29' E 139°45'0 0.0
2016-Feb-04 04:33N 35°29' E 139°45'0 0.0
2016-Feb-04 03:33N 35°29' E 139°45'6 6.4
2016-Feb-04 02:33N 35°22' E 139°45'1010.0
2016-Feb-04 01:33N 35°12' E 139°47'  
Track history (hours):
 
Tides and Currents Weather Stations Pressure Air Temp Water Temp Dewpoint Dewpoint Depression Visibility Wind Speed Wind Dir Waves Ship Positions

Dai2kousei

Last reported at 2016-Feb-08 17:23 UTC. Time now 2016-Feb-13 17:12 UTC.
Position N 34°06' E 134°46'.

Length 77 m; draft 4.7 m.

MMSI: 431000467.

Date/timePositionNaut miles runAvg speedWind from/ knotsBaromVisibWave heightAir tempDewpointWater temp
2016-Feb-08 17:23N 34°06' E 134°46'255 8.8
2016-Feb-07 12:33N 35°11' E 139°45'1111.1
2016-Feb-07 11:33N 35°22' E 139°42'7 7.3
2016-Feb-07 10:33N 35°29' E 139°46'0 0.1
2016-Feb-07 09:33N 35°29' E 139°46'0 0.0
2016-Feb-07 08:33N 35°29' E 139°46'0 0.0
2016-Feb-07 07:33N 35°29' E 139°46'0 0.0
2016-Feb-07 06:33N 35°29' E 139°46'1 1.4
2016-Feb-07 05:33N 35°29' E 139°44'0 0.0
2016-Feb-07 04:33N 35°29' E 139°44'0 0.0
2016-Feb-07 03:33N 35°29' E 139°44'0 0.0
2016-Feb-07 02:33N 35°29' E 139°44'0 0.0
2016-Feb-07 01:33N 35°29' E 139°44'0 0.0
2016-Feb-07 00:33N 35°29' E 139°44'0 0.0
2016-Feb-06 23:33N 35°29' E 139°44'0 0.0
2016-Feb-06 22:33N 35°29' E 139°44'0 0.0
2016-Feb-06 21:33N 35°29' E 139°44'2 1.5
2016-Feb-06 20:33N 35°28' E 139°46'0 0.0
2016-Feb-06 19:33N 35°28' E 139°46'0 0.0
2016-Feb-06 18:33N 35°28' E 139°46'0 0.0
2016-Feb-06 17:33N 35°28' E 139°46'0 0.0
2016-Feb-06 16:33N 35°28' E 139°46'0 0.0
2016-Feb-06 15:33N 35°28' E 139°46'0 0.0
2016-Feb-06 14:33N 35°28' E 139°46'0 0.0
2016-Feb-06 13:33N 35°28' E 139°46'0 0.1
2016-Feb-06 12:33N 35°28' E 139°46'0 0.0
2016-Feb-06 11:33N 35°28' E 139°46'0 0.1
2016-Feb-06 10:33N 35°28' E 139°46'0 0.1
2016-Feb-06 09:33N 35°28' E 139°46'0 0.0
2016-Feb-06 08:33N 35°28' E 139°46'0 0.0
2016-Feb-06 07:33N 35°28' E 139°46'0 0.0
2016-Feb-06 06:33N 35°28' E 139°46'0 0.0
2016-Feb-06 05:33N 35°28' E 139°46'0 0.0
2016-Feb-06 04:33N 35°28' E 139°46'0 0.0
2016-Feb-06 03:33N 35°28' E 139°46'0 0.0
2016-Feb-06 02:33N 35°28' E 139°46'0 0.0
2016-Feb-06 01:33N 35°28' E 139°46'0 0.0
2016-Feb-06 00:33N 35°28' E 139°46'0 0.0
2016-Feb-05 23:33N 35°28' E 139°46'0 0.0
2016-Feb-05 22:33N 35°28' E 139°46'0 0.0
2016-Feb-05 21:33N 35°28' E 139°46'0 0.0
2016-Feb-05 20:33N 35°28' E 139°46'0 0.0
2016-Feb-05 19:33N 35°28' E 139°46'0 0.0
2016-Feb-05 18:33N 35°28' E 139°46'0 0.0
2016-Feb-05 17:33N 35°28' E 139°46'0 0.0
2016-Feb-05 16:33N 35°28' E 139°46'0 0.0
2016-Feb-05 15:33N 35°28' E 139°46'0 0.0
2016-Feb-05 14:33N 35°28' E 139°46'1 1.5
2016-Feb-05 13:33N 35°29' E 139°44'0 0.0
2016-Feb-05 12:33N 35°29' E 139°44'0 0.0
2016-Feb-05 11:33N 35°29' E 139°44'0 0.0
2016-Feb-05 10:33N 35°29' E 139°44'0 0.0
2016-Feb-05 09:33N 35°29' E 139°44'0 0.0
2016-Feb-05 08:33N 35°29' E 139°44'1 1.2
2016-Feb-05 07:33N 35°29' E 139°46'0 0.1
2016-Feb-05 06:33N 35°29' E 139°45'0 0.0
2016-Feb-05 05:33N 35°29' E 139°45'0 0.0
2016-Feb-05 04:33N 35°29' E 139°45'0 0.0
2016-Feb-05 03:33N 35°29' E 139°45'0 0.0
2016-Feb-05 02:33N 35°29' E 139°46'0 0.0
2016-Feb-05 01:33N 35°29' E 139°46'0 0.0
2016-Feb-05 00:33N 35°29' E 139°46'0 0.0
2016-Feb-04 23:33N 35°29' E 139°46'0 0.0
2016-Feb-04 22:33N 35°29' E 139°46'0 0.0
2016-Feb-04 21:33N 35°29' E 139°45'0 0.0
2016-Feb-04 20:33N 35°29' E 139°45'0 0.0
2016-Feb-04 19:33N 35°29' E 139°45'0 0.1
2016-Feb-04 18:33N 35°29' E 139°46'0 0.0
2016-Feb-04 17:33N 35°29' E 139°46'0 0.0
2016-Feb-04 16:33N 35°29' E 139°46'0 0.0
2016-Feb-04 15:33N 35°29' E 139°46'0 0.0
2016-Feb-04 14:33N 35°29' E 139°46'0 0.1
2016-Feb-04 13:33N 35°29' E 139°45'0 0.0
2016-Feb-04 12:33N 35°29' E 139°45'0 0.0
2016-Feb-04 11:33N 35°29' E 139°45'0 0.1
2016-Feb-04 10:33N 35°29' E 139°46'0 0.0
2016-Feb-04 09:33N 35°29' E 139°46'0 0.0
2016-Feb-04 08:33N 35°29' E 139°46'0 0.1
2016-Feb-04 07:33N 35°29' E 139°45'0 0.0
2016-Feb-04 06:33N 35°29' E 139°45'0 0.0
2016-Feb-04 05:33N 35°29' E 139°45'0 0.0
2016-Feb-04 04:33N 35°29' E 139°45'0 0.0
2016-Feb-04 03:33N 35°29' E 139°45'6 6.4
2016-Feb-04 02:33N 35°22' E 139°45'1010.0
2016-Feb-04 01:33N 35°12' E 139°47'  

Dump ship's entire track history